Accueil
METAR-TAF:

METAR-TAF

Aéroports :

Victoria, Mahé, Seychelles

Aéroport international des Seychelles

latitude: 04-40S, longitude: 055-31E, altitude: 3 m

Observation

Le bulletin a été fait il y a 1 heure et 14 minutes, à 04:00 UTC
Vent 8 kt de sud/sud-est
Température 26°C
Humidité 84%
Pression 1012 hPa
Visibilité 10 km ou plus
Nuages épars à une hauteur de 1600 ft

METAR: FSIA 260400Z 16008KT 9999 SCT016 26/23 Q1012 NOSIG

Heure: 09:14 (05:14 UTC)


TAF: absent

Observations et prévisions météorologiques de plus de 4000 aéroports (messages METAR et TAF).

Les stations disponibles sont représentées par des disques jaunes et rouges sur la carte.

Passer la souris dessus pour voir le nom de la station.

Cliquer dessus pour voir les observations et prévisions météorologiques.

Pour changer de carte: cliquez sur les boutons verts avec une croix noire pour zoomer, sur le bouton vert avec un tiret pour effectuer un zoom arrière, ou sur les flèches vertes pour les cartes adjacentes.


METAR-TAF: